createdAt,value
2023-01-24T00:00:27.717Z,43.30
2023-01-24T00:02:54.739Z,42.63
2023-01-24T00:05:21.342Z,41.97
2023-01-24T00:07:47.882Z,43.90
2023-01-24T00:10:14.309Z,43.45
2023-01-24T00:12:40.677Z,42.10
2023-01-24T00:15:07.440Z,41.30
2023-01-24T00:17:33.840Z,41.10
2023-01-24T00:20:00.168Z,41.35
2023-01-24T00:22:26.515Z,41.28
2023-01-24T00:24:52.848Z,41.38
2023-01-24T00:27:19.212Z,40.47
2023-01-24T00:29:45.626Z,37.85
2023-01-24T00:32:12.024Z,38.10
2023-01-24T00:34:38.376Z,37.92
2023-01-24T00:37:04.733Z,39.95
2023-01-24T00:39:31.088Z,37.75
2023-01-24T00:41:57.480Z,37.20
2023-01-24T00:44:23.948Z,35.80
2023-01-24T00:46:53.756Z,35.53
2023-01-24T00:49:20.464Z,32.50
2023-01-24T00:51:46.922Z,34.10
2023-01-24T00:54:13.439Z,33.15
2023-01-24T00:56:39.761Z,33.88
2023-01-24T00:59:06.108Z,35.08
2023-01-24T01:01:32.453Z,33.92
2023-01-24T01:03:58.934Z,34.47
2023-01-24T01:06:25.976Z,32.25
2023-01-24T01:08:52.744Z,32.33
2023-01-24T01:11:19.259Z,32.85
2023-01-24T01:13:49.187Z,32.85
2023-01-24T01:16:17.399Z,31.05
2023-01-24T01:18:43.848Z,33.28
2023-01-24T01:21:12.159Z,33.20
2023-01-24T01:23:38.525Z,33.50
2023-01-24T01:26:06.286Z,33.35
2023-01-24T01:28:32.668Z,32.97
2023-01-24T01:30:59.291Z,32.05
2023-01-24T01:33:26.144Z,32.45
2023-01-24T01:35:53.283Z,32.75
2023-01-24T01:38:20.017Z,31.97
2023-01-24T01:40:46.408Z,32.17
2023-01-24T01:43:16.832Z,33.40
2023-01-24T01:45:43.262Z,34.10
2023-01-24T01:48:28.520Z,34.80
2023-01-24T01:51:01.521Z,34.55
2023-01-24T01:53:30.454Z,33.58
2023-01-24T01:56:00.294Z,35.28
2023-01-24T01:58:26.721Z,33.88
2023-01-24T02:00:53.110Z,32.42
2023-01-24T02:03:40.898Z,32.42
2023-01-24T02:08:35.055Z,33.28
2023-01-24T02:11:20.114Z,32.58
2023-01-24T02:13:47.831Z,32.88
2023-01-24T02:16:15.950Z,34.38
2023-01-24T02:21:10.857Z,31.50
2023-01-24T02:23:40.206Z,31.20
2023-01-24T02:26:06.658Z,31.10
2023-01-24T02:28:33.716Z,31.52
2023-01-24T02:31:00.953Z,31.58
2023-01-24T02:33:28.144Z,31.77
2023-01-24T02:36:14.151Z,30.03
2023-01-24T02:38:42.040Z,28.92
2023-01-24T02:41:08.678Z,31.05
2023-01-24T02:43:40.454Z,31.42
2023-01-24T02:46:06.845Z,31.15
2023-01-24T02:48:33.302Z,30.52
2023-01-24T02:51:18.376Z,29.92
2023-01-24T02:53:44.712Z,29.00
2023-01-24T02:56:30.079Z,29.15
2023-01-24T02:58:56.545Z,30.13
2023-01-24T03:01:23.361Z,28.13
2023-01-24T03:03:50.980Z,27.60
2023-01-24T03:06:17.947Z,28.08
2023-01-24T03:08:44.729Z,27.65
2023-01-24T03:11:11.510Z,27.65
2023-01-24T03:13:56.336Z,27.73
2023-01-24T03:16:41.750Z,28.38
2023-01-24T03:19:26.579Z,29.08
2023-01-24T03:22:11.463Z,28.42
2023-01-24T03:24:56.957Z,29.33
2023-01-24T03:27:41.736Z,28.67
2023-01-24T03:30:27.128Z,29.63
2023-01-24T03:33:17.103Z,30.45
2023-01-24T03:35:54.366Z,28.92
2023-01-24T03:38:42.502Z,29.38
2023-01-24T03:41:09.122Z,31.00
2023-01-24T03:43:35.494Z,29.55
2023-01-24T03:46:01.971Z,30.02
2023-01-24T03:48:35.362Z,29.42
2023-01-24T03:51:20.595Z,30.13
2023-01-24T03:53:46.999Z,29.63
2023-01-24T03:56:13.388Z,29.73
2023-01-24T03:58:39.782Z,30.83
2023-01-24T04:01:06.379Z,29.90
2023-01-24T04:03:33.553Z,29.02
2023-01-24T04:05:59.961Z,30.30
2023-01-24T04:08:26.398Z,29.30
2023-01-24T04:10:52.790Z,30.27
2023-01-24T04:13:19.161Z,28.73
2023-01-24T04:15:45.588Z,29.20
2023-01-24T04:18:12.735Z,29.67
2023-01-24T04:20:39.132Z,28.53
2023-01-24T04:23:06.678Z,29.17
2023-01-24T04:25:33.441Z,28.20
2023-01-24T04:27:59.799Z,27.42
2023-01-24T04:30:26.166Z,28.55
2023-01-24T04:32:52.569Z,27.13
2023-01-24T04:35:20.807Z,29.08
2023-01-24T04:37:47.446Z,28.50
2023-01-24T04:40:15.723Z,27.77
2023-01-24T04:42:42.488Z,29.42
2023-01-24T04:45:09.626Z,27.95
2023-01-24T04:47:35.975Z,26.10
2023-01-24T04:50:02.383Z,25.98
2023-01-24T04:52:28.756Z,27.63
2023-01-24T04:54:55.145Z,26.65
2023-01-24T04:57:21.521Z,27.13
2023-01-24T04:59:47.837Z,28.20
2023-01-24T05:02:14.275Z,27.50
2023-01-24T05:04:40.772Z,26.58
2023-01-24T05:07:07.135Z,27.58
2023-01-24T05:09:33.512Z,28.30
2023-01-24T05:11:59.847Z,24.20
2023-01-24T05:14:26.279Z,24.02
2023-01-24T05:16:52.689Z,21.38
2023-01-24T05:19:19.038Z,23.88
2023-01-24T05:21:45.421Z,22.65
2023-01-24T05:24:11.904Z,24.63
2023-01-24T05:26:38.277Z,23.90
2023-01-24T05:29:04.630Z,24.63
2023-01-24T05:31:31.099Z,24.27
2023-01-24T05:33:57.476Z,25.25
2023-01-24T05:36:24.741Z,23.77
2023-01-24T05:38:51.145Z,24.23
2023-01-24T05:41:18.740Z,23.52
2023-01-24T05:43:46.050Z,23.80
2023-01-24T05:46:16.769Z,25.48
2023-01-24T05:48:43.703Z,24.35
2023-01-24T05:51:11.105Z,23.85
2023-01-24T05:53:38.575Z,25.42
2023-01-24T05:56:06.759Z,24.35
2023-01-24T05:58:35.135Z,24.38
2023-01-24T06:01:01.663Z,25.55
2023-01-24T06:03:28.112Z,24.77
2023-01-24T06:05:55.908Z,24.73
2023-01-24T06:08:22.459Z,24.10
2023-01-24T06:10:49.070Z,24.70
2023-01-24T06:13:15.414Z,24.42
2023-01-24T06:15:42.211Z,24.83
2023-01-24T06:18:13.490Z,23.88
2023-01-24T06:20:39.924Z,22.45
2023-01-24T06:23:07.330Z,23.20
2023-01-24T06:25:34.120Z,23.55
2023-01-24T06:28:01.087Z,24.50
2023-01-24T06:30:27.530Z,23.80
2023-01-24T06:33:11.859Z,23.77
2023-01-24T06:35:47.072Z,24.25
2023-01-24T06:38:24.124Z,24.15
2023-01-24T06:40:53.729Z,23.23
2023-01-24T06:43:20.189Z,23.63
2023-01-24T06:45:46.831Z,23.08
2023-01-24T06:48:13.280Z,24.02
2023-01-24T06:50:39.612Z,23.60
2023-01-24T06:53:06.048Z,23.80
2023-01-24T06:55:32.464Z,23.42
2023-01-24T06:57:59.427Z,23.05
2023-01-24T07:00:25.848Z,22.58
2023-01-24T07:03:02.344Z,23.00
2023-01-24T07:05:28.751Z,23.23
2023-01-24T07:07:55.669Z,23.05
2023-01-24T07:10:22.199Z,22.73
2023-01-24T07:12:48.580Z,22.10
2023-01-24T07:15:14.997Z,24.13
2023-01-24T07:17:41.545Z,23.38
2023-01-24T07:20:08.438Z,22.17
2023-01-24T07:22:37.204Z,24.00
2023-01-24T07:25:03.853Z,23.65
2023-01-24T07:27:30.371Z,23.98
2023-01-24T07:29:56.723Z,23.38
2023-01-24T07:32:23.153Z,23.15
2023-01-24T07:34:49.528Z,24.23
2023-01-24T07:37:17.509Z,21.67
2023-01-24T07:39:43.829Z,23.40
2023-01-24T07:42:11.683Z,21.95
2023-01-24T07:44:38.081Z,22.20
2023-01-24T07:47:04.539Z,22.83
2023-01-24T07:49:30.924Z,23.65
2023-01-24T07:51:57.282Z,22.90
2023-01-24T07:54:23.665Z,23.27
2023-01-24T07:56:50.117Z,22.65
2023-01-24T07:59:18.078Z,22.80
2023-01-24T08:04:10.906Z,22.95
2023-01-24T08:06:39.099Z,22.95
2023-01-24T08:09:05.435Z,22.13
2023-01-24T08:11:31.779Z,22.88
2023-01-24T08:13:58.140Z,22.63
2023-01-24T08:16:26.928Z,22.25
2023-01-24T08:18:53.605Z,22.98
2023-01-24T08:21:20.368Z,20.45
2023-01-24T08:23:46.786Z,21.35
2023-01-24T08:26:13.190Z,22.58
2023-01-24T08:28:39.532Z,30.17
2023-01-24T08:31:06.176Z,29.90
2023-01-24T08:33:38.719Z,36.65
2023-01-24T08:36:05.521Z,24.38
2023-01-24T08:38:32.021Z,25.10
2023-01-24T08:40:58.387Z,24.40
2023-01-24T08:43:24.764Z,25.60
2023-01-24T08:45:54.315Z,24.98
2023-01-24T08:48:20.728Z,25.00
2023-01-24T08:50:47.115Z,24.48
2023-01-24T08:53:13.576Z,26.23
2023-01-24T08:55:40.034Z,25.77
2023-01-24T08:58:06.464Z,26.00
2023-01-24T09:00:32.834Z,23.85
2023-01-24T09:03:02.323Z,24.65
2023-01-24T09:05:29.622Z,23.85
2023-01-24T09:07:56.257Z,22.58
2023-01-24T09:10:22.605Z,22.42
2023-01-24T09:12:49.012Z,23.15
2023-01-24T09:15:15.407Z,22.05
2023-01-24T09:17:41.822Z,23.30
2023-01-24T09:20:08.668Z,27.23
2023-01-24T09:22:35.100Z,27.95
2023-01-24T09:25:01.542Z,24.17
2023-01-24T09:27:27.966Z,25.42
2023-01-24T09:29:54.321Z,24.27
2023-01-24T09:32:21.478Z,24.15
2023-01-24T09:34:49.135Z,23.63
2023-01-24T09:37:22.005Z,36.55
2023-01-24T09:39:48.524Z,34.83
2023-01-24T09:42:17.958Z,23.80
2023-01-24T09:44:47.167Z,22.67
2023-01-24T09:47:18.222Z,23.90
2023-01-24T09:49:53.503Z,23.27
2023-01-24T09:52:26.031Z,23.95
2023-01-24T09:54:57.293Z,29.80
2023-01-24T09:57:27.573Z,26.90
2023-01-24T09:59:57.094Z,26.25
2023-01-24T10:02:25.211Z,26.65
2023-01-24T10:04:51.661Z,23.25
2023-01-24T10:07:21.197Z,23.63
2023-01-24T10:09:47.531Z,23.90
2023-01-24T10:12:16.912Z,23.30
2023-01-24T10:14:48.696Z,22.75
2023-01-24T10:17:30.246Z,23.23
2023-01-24T10:19:59.667Z,25.40
2023-01-24T10:22:41.425Z,26.42
2023-01-24T10:25:14.112Z,25.02
2023-01-24T10:27:42.475Z,21.83
2023-01-24T10:30:17.616Z,23.45
2023-01-24T10:32:44.907Z,23.58
2023-01-24T10:37:39.393Z,27.17
2023-01-24T10:40:11.412Z,25.27
2023-01-24T10:42:37.872Z,25.35
2023-01-24T10:45:16.543Z,24.75
2023-01-24T10:47:45.790Z,25.52
2023-01-24T10:50:14.411Z,24.65
2023-01-24T10:52:40.829Z,24.80
2023-01-24T10:55:42.614Z,23.02
2023-01-24T10:58:21.909Z,21.48
2023-01-24T11:00:55.865Z,21.40
2023-01-24T11:03:27.583Z,21.85
2023-01-24T11:05:55.066Z,20.25
2023-01-24T11:08:26.564Z,19.75
2023-01-24T11:10:54.587Z,20.73
2023-01-24T11:13:24.106Z,20.42
2023-01-24T11:15:52.683Z,22.08
2023-01-24T11:18:24.316Z,20.48
2023-01-24T11:21:08.984Z,21.20
2023-01-24T11:23:35.641Z,20.65
2023-01-24T11:26:05.066Z,22.23
2023-01-24T11:28:32.748Z,20.83
2023-01-24T11:31:05.123Z,21.60
2023-01-24T11:33:42.965Z,21.48
2023-01-24T11:36:22.740Z,22.88
2023-01-24T11:38:50.293Z,21.58
2023-01-24T11:41:27.708Z,21.95
2023-01-24T11:44:00.175Z,21.55
2023-01-24T11:46:45.571Z,21.83
2023-01-24T11:49:14.931Z,20.60
2023-01-24T11:51:56.619Z,21.73
2023-01-24T11:54:32.274Z,20.88
2023-01-24T11:57:03.068Z,20.25
2023-01-24T11:59:32.445Z,23.13
2023-01-24T12:02:04.647Z,25.45
2023-01-24T12:04:37.025Z,26.98
2023-01-24T12:07:23.683Z,26.60
2023-01-24T12:12:16.432Z,22.20
2023-01-24T12:14:51.953Z,22.25
2023-01-24T12:17:37.114Z,18.15
2023-01-24T12:20:30.569Z,16.70
2023-01-24T12:23:00.066Z,16.73
2023-01-24T12:25:33.368Z,16.58
2023-01-24T12:28:01.265Z,16.60
2023-01-24T12:30:41.657Z,15.50
2023-01-24T12:33:23.326Z,16.20
2023-01-24T12:35:55.711Z,15.38
2023-01-24T12:38:33.380Z,13.43
2023-01-24T12:41:03.281Z,11.07
2023-01-24T12:43:53.647Z,10.90
2023-01-24T12:46:20.058Z,9.02
2023-01-24T12:48:51.711Z,8.40
2023-01-24T12:51:23.692Z,10.27
2023-01-24T12:53:53.090Z,6.22
2023-01-24T12:56:22.612Z,9.00
2023-01-24T12:58:50.550Z,8.98
2023-01-24T13:01:16.950Z,12.43
2023-01-24T13:03:50.133Z,8.57
2023-01-24T13:06:19.237Z,7.97
2023-01-24T13:08:52.085Z,7.20
2023-01-24T13:11:18.852Z,17.20
2023-01-24T13:13:48.991Z,31.17
2023-01-24T13:16:15.453Z,24.90
2023-01-24T13:18:41.850Z,14.57
2023-01-24T13:21:31.546Z,10.90
2023-01-24T13:24:06.767Z,10.63
2023-01-24T13:26:41.938Z,7.85
2023-01-24T13:29:16.681Z,15.02
2023-01-24T13:32:01.885Z,18.02
2023-01-24T13:34:31.899Z,9.10
2023-01-24T13:36:59.359Z,7.57
2023-01-24T13:39:30.593Z,7.68
2023-01-24T13:42:19.301Z,7.30
2023-01-24T13:44:45.731Z,8.73
2023-01-24T13:47:16.559Z,9.98
2023-01-24T13:49:55.249Z,7.07
2023-01-24T13:52:34.632Z,6.97
2023-01-24T13:55:01.667Z,8.85
2023-01-24T14:00:21.064Z,8.23
2023-01-24T14:02:54.318Z,6.88
2023-01-24T14:05:29.699Z,6.47
2023-01-24T14:08:00.740Z,8.80
2023-01-24T14:10:34.523Z,6.95
2023-01-24T14:13:01.048Z,6.57
2023-01-24T14:15:40.865Z,8.00
2023-01-24T14:18:25.956Z,7.00
2023-01-24T14:20:52.336Z,6.88
2023-01-24T14:23:24.881Z,6.22
2023-01-24T14:25:55.541Z,6.57
2023-01-24T14:28:52.445Z,5.82
2023-01-24T14:31:32.780Z,6.22
2023-01-24T14:34:08.027Z,6.75
2023-01-24T14:36:39.803Z,6.68
2023-01-24T14:39:25.720Z,6.70
2023-01-24T14:41:56.934Z,6.88
2023-01-24T14:44:33.880Z,7.05
2023-01-24T14:49:36.943Z,7.30
2023-01-24T14:52:18.576Z,7.13
2023-01-24T14:54:47.396Z,6.95
2023-01-24T14:57:21.185Z,7.03
2023-01-24T14:59:58.667Z,7.43
2023-01-24T15:02:25.048Z,8.45
2023-01-24T15:04:51.556Z,8.40
2023-01-24T15:07:17.942Z,9.90
2023-01-24T15:09:44.357Z,10.18
2023-01-24T15:12:14.677Z,9.43
2023-01-24T15:14:41.896Z,9.90
2023-01-24T15:17:20.623Z,9.32
2023-01-24T15:19:48.791Z,8.50
2023-01-24T15:22:19.845Z,8.73
2023-01-24T15:24:50.748Z,8.50
2023-01-24T15:27:22.192Z,7.35
2023-01-24T15:29:50.052Z,7.97
2023-01-24T15:32:25.529Z,8.77
2023-01-24T15:34:51.903Z,7.50
2023-01-24T15:37:18.285Z,7.20
2023-01-24T15:39:44.790Z,8.50
2023-01-24T15:42:36.242Z,9.18
2023-01-24T15:45:03.873Z,10.57
2023-01-24T15:50:37.767Z,10.40
2023-01-24T15:53:23.893Z,10.07
2023-01-24T15:55:51.281Z,10.55
2023-01-24T15:58:17.648Z,11.00
2023-01-24T16:00:57.448Z,10.60
2023-01-24T16:03:24.211Z,9.25
2023-01-24T16:05:50.791Z,9.50
2023-01-24T16:08:17.226Z,9.82
2023-01-24T16:10:44.441Z,10.95
2023-01-24T16:13:26.337Z,11.27
2023-01-24T16:15:52.728Z,11.05
2023-01-24T16:18:19.108Z,10.52
2023-01-24T16:20:45.664Z,10.80
2023-01-24T16:23:12.113Z,11.55
2023-01-24T16:25:41.301Z,11.73
2023-01-24T16:28:13.459Z,12.02
2023-01-24T16:30:39.920Z,11.77
2023-01-24T16:33:06.316Z,12.00
2023-01-24T16:35:32.696Z,11.77
2023-01-24T16:37:59.144Z,12.10
2023-01-24T16:40:25.504Z,12.02
2023-01-24T16:42:52.599Z,12.63
2023-01-24T16:45:20.010Z,11.50
2023-01-24T16:47:46.853Z,13.05
2023-01-24T16:50:13.568Z,13.23
2023-01-24T16:52:39.964Z,12.82
2023-01-24T16:55:07.231Z,13.35
2023-01-24T16:57:33.575Z,12.23
2023-01-24T17:00:00.041Z,11.77
2023-01-24T17:02:26.583Z,12.15
2023-01-24T17:04:53.053Z,12.93
2023-01-24T17:07:19.424Z,12.95
2023-01-24T17:09:45.811Z,12.38
2023-01-24T17:12:14.984Z,13.30
2023-01-24T17:14:41.990Z,13.52
2023-01-24T17:17:08.477Z,14.55
2023-01-24T17:19:35.514Z,16.67
2023-01-24T17:22:01.967Z,22.65
2023-01-24T17:24:28.393Z,14.52
2023-01-24T17:26:54.824Z,14.77
2023-01-24T17:29:26.675Z,28.67
2023-01-24T17:31:53.200Z,20.40
2023-01-24T17:34:19.759Z,19.33
2023-01-24T17:36:46.464Z,20.45
2023-01-24T17:39:13.025Z,19.27
2023-01-24T17:41:39.446Z,18.02
2023-01-24T17:44:05.777Z,19.55
2023-01-24T17:46:32.787Z,18.10
2023-01-24T17:48:59.236Z,20.38
2023-01-24T17:51:27.371Z,19.88
2023-01-24T17:53:54.670Z,23.15
2023-01-24T17:56:21.019Z,25.05
2023-01-24T17:58:47.448Z,19.60
2023-01-24T18:01:15.620Z,20.73
2023-01-24T18:03:45.378Z,20.38
2023-01-24T18:06:12.281Z,34.45
2023-01-24T18:08:38.695Z,37.22
2023-01-24T18:11:11.562Z,34.63
2023-01-24T18:13:38.356Z,38.60
2023-01-24T18:16:05.867Z,37.92
2023-01-24T18:18:32.338Z,31.45
2023-01-24T18:20:58.818Z,30.38
2023-01-24T18:23:25.321Z,27.25
2023-01-24T18:25:51.667Z,26.75
2023-01-24T18:28:18.027Z,26.38
2023-01-24T18:30:44.388Z,26.52
2023-01-24T18:33:10.758Z,26.35
2023-01-24T18:35:40.000Z,27.35
2023-01-24T18:38:06.341Z,28.10
2023-01-24T18:40:32.796Z,26.48
2023-01-24T18:42:59.129Z,26.05
2023-01-24T18:45:25.512Z,26.77
2023-01-24T18:47:52.163Z,26.63
2023-01-24T18:50:18.610Z,36.95
2023-01-24T18:52:44.987Z,37.00
2023-01-24T18:55:13.032Z,39.47
2023-01-24T19:00:06.852Z,39.42
2023-01-24T19:02:33.513Z,29.60
2023-01-24T19:05:00.494Z,32.00
2023-01-24T19:07:26.859Z,32.40
2023-01-24T19:09:53.269Z,33.75
2023-01-24T19:12:19.598Z,32.33
2023-01-24T19:14:46.260Z,31.55
2023-01-24T19:17:12.576Z,31.40
2023-01-24T19:19:39.006Z,30.35
2023-01-24T19:22:09.434Z,31.92
2023-01-24T19:24:36.387Z,33.50
2023-01-24T19:27:03.001Z,46.35
2023-01-24T19:29:31.314Z,39.15
2023-01-24T19:31:57.708Z,36.33
2023-01-24T19:34:24.138Z,36.80
2023-01-24T19:36:50.660Z,33.70
2023-01-24T19:39:17.004Z,32.55
2023-01-24T19:41:43.369Z,34.88
2023-01-24T19:44:25.115Z,38.92
2023-01-24T19:46:51.584Z,37.78
2023-01-24T19:49:18.519Z,36.63
2023-01-24T19:51:44.884Z,34.30
2023-01-24T19:54:11.423Z,39.88
2023-01-24T19:56:37.957Z,44.63
2023-01-24T19:59:05.076Z,38.17
2023-01-24T20:01:31.549Z,37.80
2023-01-24T20:04:02.838Z,38.53
2023-01-24T20:06:36.996Z,36.78
2023-01-24T20:09:03.566Z,38.50
2023-01-24T20:11:30.001Z,39.67
2023-01-24T20:13:57.052Z,38.25
2023-01-24T20:16:25.149Z,35.45
2023-01-24T20:21:18.150Z,34.55
2023-01-24T20:23:45.518Z,35.63
2023-01-24T20:26:12.597Z,36.42
2023-01-24T20:28:39.637Z,37.47
2023-01-24T20:31:07.002Z,34.63
2023-01-24T20:33:33.586Z,33.90
2023-01-24T20:36:00.420Z,39.90
2023-01-24T20:38:36.247Z,42.22
2023-01-24T20:41:05.697Z,41.72
2023-01-24T20:43:35.556Z,42.25
2023-01-24T20:46:02.649Z,45.30
2023-01-24T20:48:29.997Z,47.40
2023-01-24T20:50:57.318Z,41.95
2023-01-24T20:53:23.895Z,41.97
2023-01-24T20:55:56.998Z,43.70
2023-01-24T20:58:23.878Z,39.10
2023-01-24T21:00:50.938Z,38.22
2023-01-24T21:03:17.806Z,46.25
2023-01-24T21:05:44.314Z,45.95
2023-01-24T21:08:10.887Z,47.17
2023-01-24T21:10:37.367Z,48.10
2023-01-24T21:13:03.923Z,47.47
2023-01-24T21:15:31.053Z,44.42
2023-01-24T21:17:57.701Z,41.90
2023-01-24T21:20:25.084Z,41.03
2023-01-24T21:22:51.830Z,44.03
2023-01-24T21:25:18.164Z,44.42
2023-01-24T21:27:48.758Z,43.25
2023-01-24T21:30:15.327Z,39.58
2023-01-24T21:32:41.656Z,43.85
2023-01-24T21:35:08.722Z,44.88
2023-01-24T21:37:35.298Z,46.80
2023-01-24T21:40:01.696Z,45.35
2023-01-24T21:42:28.287Z,46.05
2023-01-24T21:44:54.659Z,45.15
2023-01-24T21:47:21.047Z,45.30
2023-01-24T21:49:47.396Z,43.92
2023-01-24T21:52:14.000Z,43.13
2023-01-24T21:54:40.391Z,43.38
2023-01-24T21:57:35.298Z,44.42
2023-01-24T22:00:04.055Z,45.72
2023-01-24T22:02:31.087Z,48.20
2023-01-24T22:04:57.805Z,55.65
2023-01-24T22:07:25.307Z,54.75
2023-01-24T22:09:52.039Z,48.45
2023-01-24T22:12:18.393Z,44.45
2023-01-24T22:14:44.899Z,44.08
2023-01-24T22:17:19.383Z,44.33
2023-01-24T22:19:48.899Z,45.45
2023-01-24T22:22:19.725Z,50.08
2023-01-24T22:24:49.207Z,47.13
2023-01-24T22:27:17.091Z,46.17
2023-01-24T22:29:44.369Z,46.10
2023-01-24T22:32:12.137Z,45.55
2023-01-24T22:34:38.703Z,44.92
2023-01-24T22:37:17.093Z,45.47
2023-01-24T22:39:43.453Z,44.75
2023-01-24T22:42:09.792Z,45.67
2023-01-24T22:44:36.199Z,49.28
2023-01-24T22:47:02.581Z,50.45
2023-01-24T22:49:29.265Z,47.53
2023-01-24T22:51:55.677Z,46.40
2023-01-24T22:54:22.043Z,46.47
2023-01-24T22:56:48.397Z,48.00
2023-01-24T22:59:14.785Z,50.40
2023-01-24T23:01:41.147Z,49.60
2023-01-24T23:04:07.965Z,47.50
2023-01-24T23:06:34.902Z,47.35
2023-01-24T23:09:01.310Z,46.95
2023-01-24T23:11:27.983Z,43.92
2023-01-24T23:14:12.842Z,43.03
2023-01-24T23:16:40.642Z,42.30
2023-01-24T23:19:43.657Z,44.28
2023-01-24T23:22:10.335Z,46.83
2023-01-24T23:24:36.736Z,43.72
2023-01-24T23:27:03.318Z,42.53
2023-01-24T23:29:53.267Z,42.60
2023-01-24T23:32:25.675Z,42.03
2023-01-24T23:35:01.082Z,43.15
2023-01-24T23:37:28.415Z,42.80
2023-01-24T23:39:54.807Z,41.80
2023-01-24T23:42:21.876Z,42.03
2023-01-24T23:44:48.388Z,43.25
2023-01-24T23:47:14.793Z,43.47
2023-01-24T23:49:41.270Z,42.78
2023-01-24T23:52:08.037Z,42.70
2023-01-24T23:54:34.499Z,41.00
2023-01-24T23:57:00.893Z,40.63
2023-01-24T23:59:27.370Z,43.60
